Portland, Oregon
Traffic Map
Current Weather Conditions
Portland, Oregon
Few Clouds
Few Clouds
79°
Feels Like: 80°
Wind Chill: 79° Ceiling: Unl
Heat Index: 80° Visibility: 10mi
Dew Point: 55° Wind: 8mph
Humidity: 44% Direction: 320° (NW)
Pressure: 30.03in Gusts: 0mph
Raw Report DataKPDX 311853Z 32007KT 10SM FEW150 FEW250 26/13 A3003 RMK AO2 SLP169 T02610128
Traffic Incident Summary
Active as of:
Severity:
Category:
InformationThere was an issue retrieving the traffic information for this location. Please try a different location or try again shortly.
Advertisements
Track Severe Weather on mobile